Time;durP1;ratioP1;P1;durP2;ratioP2;P2;SDS_P1;SDS_P2;PMS_P1;PMS_P2;Temp;Humidity;BMP_temperature;BMP_pressure;BME280_temperature;BME280_humidity;BME280_pressure;Samples;Min_cycle;Max_cycle;Signal;HPM_P1;HPM_P2
2023/03/05 00:00:08;;;;;;;;;;;;;;;5.35;82.78;99349.53;3170497;28;19934;-63
2023/03/05 00:01:40;;;;;;;;;;;;;;;5.33;82.68;99357.34;3170958;28;19930;-63
2023/03/05 00:03:10;;;;;;;;;;;;;;;5.31;82.79;99348.81;3170390;28;19927;-64
2023/03/05 00:04:42;;;;;;;;;;;;;;;5.31;82.80;99350.53;3170978;28;19924;-63
2023/03/05 00:06:15;;;;;;;;;;;;;;;5.31;82.77;99353.97;3170794;28;19934;-63
2023/03/05 00:07:47;;;;;;;;;;;;;;;5.32;82.72;99357.38;3170788;28;19923;-63
2023/03/05 00:09:19;;;;;;;;;;;;;;;5.32;82.80;99347.06;3170749;28;19951;-63
2023/03/05 00:10:56;;;;;;;;;;;;;;;5.31;82.88;99351.38;3170862;28;19927;-63
2023/03/05 00:12:27;;;;;;;;;;;;;;;5.31;82.83;99353.13;3170650;28;19979;-63
2023/03/05 00:13:59;;;;;;;;;;;;;;;5.30;82.64;99354.88;3170669;28;19931;-63
2023/03/05 00:15:30;;;;;;;;;;;;;;;5.29;82.92;99353.16;3170411;28;19924;-63
2023/03/05 00:17:02;;;;;;;;;;;;;;;5.28;82.94;99355.81;3170412;28;19977;-63
2023/03/05 00:18:33;;;;;;;;;;;;;;;5.22;82.99;99352.50;3170815;28;19927;-63
2023/03/05 00:20:05;;;;;;;;;;;;;;;5.19;83.18;99359.50;3170569;28;20092;-63
2023/03/05 00:21:37;;;;;;;;;;;;;;;5.14;83.41;99351.88;3170691;28;19968;-64
2023/03/05 00:23:09;;;;;;;;;;;;;;;5.14;83.46;99348.47;3170270;28;19924;-63
2023/03/05 00:24:41;;;;;;;;;;;;;;;5.13;83.53;99345.06;3169791;28;19931;-63
2023/03/05 00:26:12;;;;;;;;;;;;;;;5.10;83.54;99346.88;3170597;28;19939;-63
2023/03/05 00:27:44;;;;;;;;;;;;;;;5.07;83.76;99342.66;3170511;28;20027;-63
2023/03/05 00:29:17;;;;;;;;;;;;;;;5.07;83.92;99344.41;3170353;28;19924;-63
2023/03/05 00:30:48;;;;;;;;;;;;;;;5.05;83.85;99341.84;3170774;28;20324;-63
2023/03/05 00:32:19;;;;;;;;;;;;;;;5.05;83.94;99336.69;3170514;28;19924;-63
2023/03/05 00:33:52;;;;;;;;;;;;;;;5.08;84.03;99333.16;3170537;28;19924;-63
2023/03/05 00:35:23;;;;;;;;;;;;;;;5.05;83.91;99321.19;3170492;28;19928;-63
2023/03/05 00:36:55;;;;;;;;;;;;;;;5.13;83.62;99326.16;3170463;28;19931;-63
2023/03/05 00:38:25;;;;;;;;;;;;;;;5.13;83.72;99326.97;3170475;28;20301;-63
2023/03/05 00:39:57;;;;;;;;;;;;;;;5.15;83.54;99325.22;3170368;28;20087;-63
2023/03/05 00:41:30;;;;;;;;;;;;;;;5.17;83.42;99325.16;3170710;28;19928;-63
2023/03/05 00:43:02;;;;;;;;;;;;;;;5.18;83.34;99319.94;3170082;28;20394;-63
2023/03/05 00:44:33;;;;;;;;;;;;;;;5.22;83.29;99323.28;3169967;28;19928;-63
2023/03/05 00:46:04;;;;;;;;;;;;;;;5.23;83.24;99319.78;3170389;28;20336;-64
2023/03/05 00:47:36;;;;;;;;;;;;;;;5.23;83.18;99325.81;3170512;28;19924;-64
2023/03/05 00:49:07;;;;;;;;;;;;;;;5.22;82.95;99318.94;3170275;28;19923;-63
2023/03/05 00:50:39;;;;;;;;;;;;;;;5.21;83.11;99322.44;3170476;28;19960;-63
2023/03/05 00:52:10;;;;;;;;;;;;;;;5.22;83.11;99315.53;3170454;28;19930;-63
2023/03/05 00:53:41;;;;;;;;;;;;;;;5.23;83.00;99314.63;3170486;28;19992;-63
2023/03/05 00:55:13;;;;;;;;;;;;;;;5.25;82.84;99305.09;3170589;28;19936;-63
2023/03/05 00:56:46;;;;;;;;;;;;;;;5.24;82.80;99306.00;3170133;28;19947;-63
2023/03/05 00:58:17;;;;;;;;;;;;;;;5.22;82.74;99302.63;3170264;28;20428;-63
2023/03/05 00:59:48;;;;;;;;;;;;;;;5.21;82.93;99306.94;3170287;28;19930;-63
2023/03/05 01:01:20;;;;;;;;;;;;;;;5.20;83.04;99304.41;3170166;28;19973;-63
2023/03/05 01:02:50;;;;;;;;;;;;;;;5.20;83.01;99304.41;3170116;28;19927;-64
2023/03/05 01:04:22;;;;;;;;;;;;;;;5.21;82.83;99306.09;3170343;28;19938;-63
2023/03/05 01:05:53;;;;;;;;;;;;;;;5.19;82.88;99306.13;3170432;28;20076;-63
2023/03/05 01:07:24;;;;;;;;;;;;;;;5.18;82.90;99307.03;3170316;28;19969;-63
2023/03/05 01:08:55;;;;;;;;;;;;;;;5.13;83.06;99308.91;3170265;28;20404;-63
2023/03/05 01:10:27;;;;;;;;;;;;;;;5.10;83.27;99309.00;3170353;28;19981;-63
2023/03/05 01:12:01;;;;;;;;;;;;;;;5.07;83.22;99314.25;3170088;28;20068;-63
2023/03/05 01:13:32;;;;;;;;;;;;;;;5.04;83.65;99308.34;3170106;28;19924;-63
2023/03/05 01:15:04;;;;;;;;;;;;;;;4.98;83.76;99309.38;3170234;28;19928;-63
2023/03/05 01:16:36;;;;;;;;;;;;;;;4.96;83.79;99309.41;3170184;28;20320;-63
2023/03/05 01:18:07;;;;;;;;;;;;;;;4.94;83.85;99305.19;3170442;28;20722;-63
2023/03/05 01:19:38;;;;;;;;;;;;;;;4.93;83.79;99306.94;3170222;28;19928;-63
2023/03/05 01:21:10;;;;;;;;;;;;;;;4.92;83.89;99309.56;3169581;28;19923;-63
2023/03/05 01:22:40;;;;;;;;;;;;;;;4.90;83.92;99306.19;3170313;28;19924;-63
2023/03/05 01:24:12;;;;;;;;;;;;;;;4.91;83.92;99303.56;3170241;28;20418;-63
2023/03/05 01:25:44;;;;;;;;;;;;;;;4.95;83.86;99304.31;3170152;28;19928;-63
2023/03/05 01:27:16;;;;;;;;;;;;;;;4.97;83.79;99300.81;3170297;28;19924;-63
2023/03/05 01:28:48;;;;;;;;;;;;;;;5.00;83.76;99300.72;3170282;28;19943;-63
2023/03/05 01:30:19;;;;;;;;;;;;;;;5.03;83.57;99299.78;3169848;28;19924;-63
2023/03/05 01:31:50;;;;;;;;;;;;;;;5.06;83.60;99298.81;3170464;28;19923;-63
2023/03/05 01:33:22;;;;;;;;;;;;;;;5.07;83.53;99293.63;3170311;28;20017;-63
2023/03/05 01:34:53;;;;;;;;;;;;;;;5.09;83.46;99291.84;3172316;28;19928;-63
2023/03/05 01:36:25;;;;;;;;;;;;;;;5.11;83.18;99292.63;3172437;28;19947;-63
2023/03/05 01:37:56;;;;;;;;;;;;;;;5.11;82.93;99294.38;3172582;28;19923;-63
2023/03/05 01:39:27;;;;;;;;;;;;;;;5.12;83.24;99290.91;3172805;28;20449;-64
2023/03/05 01:40:59;;;;;;;;;;;;;;;5.11;82.98;99295.19;3172414;28;19957;-63
2023/03/05 01:42:32;;;;;;;;;;;;;;;5.10;82.98;99288.38;3172573;28;19928;-63
2023/03/05 01:44:04;;;;;;;;;;;;;;;5.10;83.04;99293.53;3172352;28;20452;-63
2023/03/05 01:45:34;;;;;;;;;;;;;;;5.07;83.16;99298.78;3172377;28;19924;-64
2023/03/05 01:47:06;;;;;;;;;;;;;;;5.04;83.19;99295.47;3172491;28;20018;-62
2023/03/05 01:48:38;;;;;;;;;;;;;;;5.04;83.14;99292.88;3172425;28;19924;-62
2023/03/05 01:50:11;;;;;;;;;;;;;;;5.02;83.27;99296.31;3172491;28;19924;-64
2023/03/05 01:51:47;;;;;;;;;;;;;;;5.04;83.20;99292.88;3172628;28;19927;-63
2023/03/05 01:53:19;;;;;;;;;;;;;;;5.06;83.29;99289.34;3172564;28;20018;-62
2023/03/05 01:54:53;;;;;;;;;;;;;;;5.08;83.23;99284.97;3172220;28;19924;-62
2023/03/05 01:56:24;;;;;;;;;;;;;;;5.10;82.93;99288.38;3172411;28;20333;-62
2023/03/05 01:57:59;;;;;;;;;;;;;;;5.12;82.98;99296.06;3172258;28;19927;-62
2023/03/05 01:59:30;;;;;;;;;;;;;;;5.13;83.03;99287.44;3172014;28;19930;-63
2023/03/05 02:01:01;;;;;;;;;;;;;;;5.14;82.86;99289.94;3172119;28;19924;-62
2023/03/05 02:02:33;;;;;;;;;;;;;;;5.15;82.96;99286.50;3172007;28;20504;-63
2023/03/05 02:04:04;;;;;;;;;;;;;;;5.12;82.93;99290.91;3171976;28;19928;-62
2023/03/05 02:05:36;;;;;;;;;;;;;;;5.07;83.07;99285.88;3172295;28;19930;-63
2023/03/05 02:07:09;;;;;;;;;;;;;;;5.02;83.05;99291.16;3172245;28;19927;-62
2023/03/05 02:08:41;;;;;;;;;;;;;;;4.99;83.41;99282.69;3172176;28;19924;-63
2023/03/05 02:10:16;;;;;;;;;;;;;;;4.96;83.40;99286.19;3172172;28;19936;-63
2023/03/05 02:11:48;;;;;;;;;;;;;;;4.99;83.37;99285.25;3172089;28;20469;-63
2023/03/05 02:13:22;;;;;;;;;;;;;;;4.95;83.57;99276.78;3171801;28;20365;-63
2023/03/05 02:14:58;;;;;;;;;;;;;;;4.96;83.43;99270.72;3172341;28;20455;-62
2023/03/05 02:16:34;;;;;;;;;;;;;;;4.94;83.54;99280.25;3171383;28;19973;-63
2023/03/05 02:18:06;;;;;;;;;;;;;;;4.93;83.51;99275.13;3171564;28;19923;-63
2023/03/05 02:19:47;;;;;;;;;;;;;;;4.93;83.64;99275.97;3171305;28;20504;-62
2023/03/05 02:21:29;;;;;;;;;;;;;;;4.93;83.63;99277.72;3171956;28;19924;-61
2023/03/05 02:23:00;;;;;;;;;;;;;;;4.91;83.66;99275.19;3171900;28;19924;-62
2023/03/05 02:24:34;;;;;;;;;;;;;;;4.93;83.77;99269.97;3171946;28;19923;-61
2023/03/05 02:26:07;;;;;;;;;;;;;;;4.93;83.59;99268.22;3171866;28;19939;-61
2023/03/05 02:27:40;;;;;;;;;;;;;;;4.95;83.40;99265.63;3171999;28;20469;-61
2023/03/05 02:29:14;;;;;;;;;;;;;;;4.97;83.65;99269.00;3171817;28;19931;-62
2023/03/05 02:30:46;;;;;;;;;;;;;;;4.97;83.38;99262.09;3171793;28;19930;-62
2023/03/05 02:32:16;;;;;;;;;;;;;;;4.99;83.46;99265.47;3171802;28;19923;-61
2023/03/05 02:33:48;;;;;;;;;;;;;;;5.02;83.33;99267.09;3171765;28;19928;-61
2023/03/05 02:35:20;;;;;;;;;;;;;;;5.05;83.48;99269.59;3171818;28;19931;-62
2023/03/05 02:36:54;;;;;;;;;;;;;;;5.07;83.28;99272.97;3171849;28;19931;-62
2023/03/05 02:38:24;;;;;;;;;;;;;;;5.10;83.39;99272.88;3171741;28;19923;-62
2023/03/05 02:39:56;;;;;;;;;;;;;;;5.11;83.06;99269.38;3171506;27;19945;-62
2023/03/05 02:41:27;;;;;;;;;;;;;;;5.14;83.08;99273.63;3171593;28;19924;-62
2023/03/05 02:42:58;;;;;;;;;;;;;;;5.15;82.82;99270.16;3171604;28;19973;-62
2023/03/05 02:44:30;;;;;;;;;;;;;;;5.17;82.80;99264.03;3171751;28;19946;-62
2023/03/05 02:46:01;;;;;;;;;;;;;;;5.19;82.96;99267.41;3170768;28;19923;-62
2023/03/05 02:47:33;;;;;;;;;;;;;;;5.22;82.84;99263.91;3171728;28;19947;-62
2023/03/05 02:49:05;;;;;;;;;;;;;;;5.22;82.75;99267.31;3171227;28;19923;-62
2023/03/05 02:50:35;;;;;;;;;;;;;;;5.24;82.58;99265.53;3171702;28;19980;-62
2023/03/05 02:52:08;;;;;;;;;;;;;;;5.26;82.67;99262.91;3171487;28;19924;-62
2023/03/05 02:53:40;;;;;;;;;;;;;;;5.28;82.29;99258.53;3171270;28;19923;-63
2023/03/05 02:55:11;;;;;;;;;;;;;;;5.29;82.47;99254.22;3171572;28;20419;-62
2023/03/05 02:56:42;;;;;;;;;;;;;;;5.24;82.30;99265.53;3171519;28;19923;-62
2023/03/05 02:58:13;;;;;;;;;;;;;;;5.25;82.39;99271.53;3171269;28;20320;-62
2023/03/05 02:59:45;;;;;;;;;;;;;;;5.24;82.41;99267.28;3171335;28;19934;-62
2023/03/05 03:01:16;;;;;;;;;;;;;;;5.22;82.40;99264.75;3171448;28;20392;-62
2023/03/05 03:02:48;;;;;;;;;;;;;;;5.20;82.24;99269.09;3171076;28;20379;-62
2023/03/05 03:04:19;;;;;;;;;;;;;;;5.18;82.16;99270.91;3171381;28;19923;-62
2023/03/05 03:05:51;;;;;;;;;;;;;;;5.16;82.19;99270.09;3171425;28;20072;-62
2023/03/05 03:07:24;;;;;;;;;;;;;;;5.13;82.27;99272.78;3171245;28;19951;-61
2023/03/05 03:08:56;;;;;;;;;;;;;;;5.11;82.19;99269.38;3171400;28;19986;-62
2023/03/05 03:10:27;;;;;;;;;;;;;;;5.09;82.30;99271.19;3171430;28;19943;-62
2023/03/05 03:11:59;;;;;;;;;;;;;;;5.07;82.13;99272.13;3171312;28;19987;-62
2023/03/05 03:13:31;;;;;;;;;;;;;;;5.03;82.41;99271.38;3170931;28;20265;-63
2023/03/05 03:15:02;;;;;;;;;;;;;;;4.99;82.32;99268.03;3171286;28;19943;-62
2023/03/05 03:16:33;;;;;;;;;;;;;;;4.98;82.43;99266.34;3170956;28;19939;-62
2023/03/05 03:18:04;;;;;;;;;;;;;;;4.99;82.41;99269.78;3171433;28;20320;-62
2023/03/05 03:19:36;;;;;;;;;;;;;;;4.97;82.30;99262.09;3171123;28;19953;-62
2023/03/05 03:21:08;;;;;;;;;;;;;;;4.99;82.24;99265.47;3170933;28;19928;-63
2023/03/05 03:22:41;;;;;;;;;;;;;;;5.00;82.39;99266.31;3171333;28;20005;-63
2023/03/05 03:24:12;;;;;;;;;;;;;;;4.99;82.35;99268.03;3171216;28;19924;-63
2023/03/05 03:25:43;;;;;;;;;;;;;;;5.00;82.29;99263.75;3171156;28;19977;-63
2023/03/05 03:27:14;;;;;;;;;;;;;;;4.99;82.11;99262.03;3171329;28;20400;-63
2023/03/05 03:28:47;;;;;;;;;;;;;;;4.95;82.33;99260.47;3171013;28;19923;-62
2023/03/05 03:30:19;;;;;;;;;;;;;;;4.94;82.14;99266.50;3171020;27;19951;-64
2023/03/05 03:31:51;;;;;;;;;;;;;;;4.93;82.19;99259.66;3171304;28;19924;-62
2023/03/05 03:33:22;;;;;;;;;;;;;;;4.93;82.26;99262.22;3170997;28;19931;-63
2023/03/05 03:34:54;;;;;;;;;;;;;;;4.91;81.98;99258.84;3170943;28;19938;-63
2023/03/05 03:36:25;;;;;;;;;;;;;;;4.90;81.95;99270.06;3171098;28;19924;-62
2023/03/05 03:37:58;;;;;;;;;;;;;;;4.86;81.98;99259.00;3171073;28;19924;-63
2023/03/05 03:39:30;;;;;;;;;;;;;;;4.85;82.02;99261.59;3170862;28;20384;-63
2023/03/05 03:41:00;;;;;;;;;;;;;;;4.83;82.01;99260.84;3171124;28;19924;-62
2023/03/05 03:42:32;;;;;;;;;;;;;;;4.83;82.06;99259.09;3171059;28;19924;-63
2023/03/05 03:44:06;;;;;;;;;;;;;;;4.83;82.03;99263.41;3170753;28;20313;-63
2023/03/05 03:45:40;;;;;;;;;;;;;;;4.84;81.96;99254.78;3171150;28;19924;-62
2023/03/05 03:47:12;;;;;;;;;;;;;;;4.85;82.03;99257.31;3170783;28;19924;-63
2023/03/05 03:48:43;;;;;;;;;;;;;;;4.85;81.99;99252.16;3170921;28;19934;-62
2023/03/05 03:50:14;;;;;;;;;;;;;;;4.87;81.94;99259.84;3170809;28;19950;-62
2023/03/05 03:51:45;;;;;;;;;;;;;;;4.88;81.89;99252.06;3170922;28;20391;-62
2023/03/05 03:53:17;;;;;;;;;;;;;;;4.89;81.92;99253.75;3170588;28;19924;-63
2023/03/05 03:54:51;;;;;;;;;;;;;;;4.90;81.80;99246.84;3170814;28;19924;-63
2023/03/05 03:56:22;;;;;;;;;;;;;;;4.92;81.82;99247.66;3170913;28;19924;-63
2023/03/05 03:57:54;;;;;;;;;;;;;;;4.92;81.76;99245.06;3169841;28;19931;-62
2023/03/05 03:59:25;;;;;;;;;;;;;;;4.91;81.76;99245.94;3171005;28;19924;-62
2023/03/05 04:00:57;;;;;;;;;;;;;;;4.91;81.79;99244.22;3170605;28;19924;-62
2023/03/05 04:02:28;;;;;;;;;;;;;;;4.91;81.91;99243.34;3170258;28;19988;-62
2023/03/05 04:04:00;;;;;;;;;;;;;;;4.89;81.77;99248.59;3170660;28;19934;-63
2023/03/05 04:05:32;;;;;;;;;;;;;;;4.84;81.80;99240.13;3170747;28;19992;-62
2023/03/05 04:07:03;;;;;;;;;;;;;;;4.89;81.79;99252.91;3170207;28;19928;-62
2023/03/05 04:08:36;;;;;;;;;;;;;;;4.88;81.79;99257.22;3170692;28;19982;-63
2023/03/05 04:10:08;;;;;;;;;;;;;;;4.89;81.90;99258.91;3170162;28;20430;-62
2023/03/05 04:11:40;;;;;;;;;;;;;;;4.90;81.73;99254.59;3170675;28;20347;-62
2023/03/05 04:13:12;;;;;;;;;;;;;;;4.90;81.67;99259.75;3170651;28;19924;-62
2023/03/05 04:14:44;;;;;;;;;;;;;;;4.91;81.89;99261.41;3159740;28;19928;-63
2023/03/05 04:16:15;;;;;;;;;;;;;;;4.92;81.67;99268.28;3170711;28;20384;-63
2023/03/05 04:17:47;;;;;;;;;;;;;;;4.92;81.58;99269.13;3170446;28;20480;-62
2023/03/05 04:19:19;;;;;;;;;;;;;;;4.89;81.43;99258.06;3170161;28;19927;-63
2023/03/05 04:20:50;;;;;;;;;;;;;;;4.94;81.75;99262.19;3170426;28;20320;-63
2023/03/05 04:22:22;;;;;;;;;;;;;;;4.94;81.49;99261.31;3170557;28;20384;-62
2023/03/05 04:23:55;;;;;;;;;;;;;;;4.94;81.58;99261.31;3170577;27;19935;-63
2023/03/05 04:25:26;;;;;;;;;;;;;;;4.93;81.43;99260.50;3170702;28;19969;-63
2023/03/05 04:26:58;;;;;;;;;;;;;;;4.94;81.54;99258.75;3170258;28;19935;-62
2023/03/05 04:28:29;;;;;;;;;;;;;;;4.93;81.43;99260.50;3170531;28;19984;-63
2023/03/05 04:30:01;;;;;;;;;;;;;;;4.93;81.66;99259.66;3170575;28;19924;-62
2023/03/05 04:31:32;;;;;;;;;;;;;;;4.92;81.48;99263.13;3170286;28;19931;-62
2023/03/05 04:33:04;;;;;;;;;;;;;;;4.90;81.66;99258.00;3170187;28;20029;-62
2023/03/05 04:34:36;;;;;;;;;;;;;;;4.89;81.72;99263.22;3170295;28;19924;-62
2023/03/05 04:36:08;;;;;;;;;;;;;;;4.88;81.65;99257.22;3170342;28;19927;-62
2023/03/05 04:37:39;;;;;;;;;;;;;;;4.86;81.81;99264.16;3169718;28;19924;-63
2023/03/05 04:39:12;;;;;;;;;;;;;;;4.84;81.87;99270.25;3170354;28;19924;-62
2023/03/05 04:40:44;;;;;;;;;;;;;;;4.84;81.89;99272.84;3158249;28;20202;-62
2023/03/05 04:42:15;;;;;;;;;;;;;;;4.84;81.75;99265.94;3169552;28;19924;-63
2023/03/05 04:43:46;;;;;;;;;;;;;;;4.85;81.78;99261.59;3170242;28;20301;-62
2023/03/05 04:45:18;;;;;;;;;;;;;;;4.85;81.71;99262.47;3170585;28;20363;-62
2023/03/05 04:46:50;;;;;;;;;;;;;;;4.85;81.68;99261.59;3170195;28;20396;-62
2023/03/05 04:48:21;;;;;;;;;;;;;;;4.83;81.74;99255.69;3170239;28;19923;-62
2023/03/05 04:49:52;;;;;;;;;;;;;;;4.83;81.98;99259.09;3170208;28;19927;-63
2023/03/05 04:51:23;;;;;;;;;;;;;;;4.85;81.97;99262.47;3170265;28;20384;-63
2023/03/05 04:52:56;;;;;;;;;;;;;;;4.84;81.75;99259.94;3170284;28;19981;-62
2023/03/05 04:54:28;;;;;;;;;;;;;;;4.84;81.97;99259.94;3165617;28;19923;-62
2023/03/05 04:56:00;;;;;;;;;;;;;;;4.85;81.88;99269.34;3169940;28;19935;-62
2023/03/05 04:57:31;;;;;;;;;;;;;;;4.84;81.77;99268.50;3157892;28;19924;-63
2023/03/05 04:59:03;;;;;;;;;;;;;;;4.79;81.71;99268.66;3165257;28;19932;-62
2023/03/05 05:00:35;;;;;;;;;;;;;;;4.77;81.74;99267.84;3170039;28;19935;-62
2023/03/05 05:02:06;;;;;;;;;;;;;;;4.77;81.87;99265.28;3169914;28;19923;-63
2023/03/05 05:03:37;;;;;;;;;;;;;;;4.77;81.72;99269.59;3170205;28;19923;-63
2023/03/05 05:05:09;;;;;;;;;;;;;;;4.74;81.76;99270.53;3170164;28;20339;-62
2023/03/05 05:06:40;;;;;;;;;;;;;;;4.69;81.93;99267.25;3169766;28;19924;-63
2023/03/05 05:08:12;;;;;;;;;;;;;;;4.68;81.90;99273.28;3170369;28;19998;-63
2023/03/05 05:09:44;;;;;;;;;;;;;;;4.69;81.77;99267.25;3172037;28;19938;-63
2023/03/05 05:11:15;;;;;;;;;;;;;;;4.67;81.79;99266.44;3172579;28;20006;-63
2023/03/05 05:12:46;;;;;;;;;;;;;;;4.67;81.85;99268.16;3172593;28;19936;-62
2023/03/05 05:14:18;;;;;;;;;;;;;;;4.65;82.13;99260.50;3172739;28;20371;-63
2023/03/05 05:15:49;;;;;;;;;;;;;;;4.67;81.94;99263.00;3172525;28;19931;-62
2023/03/05 05:17:21;;;;;;;;;;;;;;;4.67;81.89;99261.28;3172605;28;19923;-62
2023/03/05 05:18:52;;;;;;;;;;;;;;;4.70;81.74;99266.38;3172660;28;19960;-62
2023/03/05 05:20:24;;;;;;;;;;;;;;;4.72;81.92;99263.72;3172776;28;19923;-62
2023/03/05 05:21:55;;;;;;;;;;;;;;;4.72;82.03;99261.97;3172600;28;19928;-63
2023/03/05 05:23:27;;;;;;;;;;;;;;;4.74;81.79;99267.94;3172670;28;19923;-63
2023/03/05 05:25:00;;;;;;;;;;;;;;;4.78;81.92;99273.84;3172747;28;19928;-62
2023/03/05 05:26:32;;;;;;;;;;;;;;;4.81;81.81;99273.75;3172436;28;20392;-63
2023/03/05 05:28:04;;;;;;;;;;;;;;;4.84;81.80;99275.41;3172251;28;19951;-63
2023/03/05 05:29:35;;;;;;;;;;;;;;;4.86;81.62;99278.81;3172508;28;19935;-62
2023/03/05 05:31:06;;;;;;;;;;;;;;;4.88;81.70;99274.41;3172697;28;19923;-62
2023/03/05 05:32:38;;;;;;;;;;;;;;;4.90;81.59;99275.22;3172546;28;19928;-62
2023/03/05 05:34:10;;;;;;;;;;;;;;;4.94;81.51;99281.97;3172235;28;19989;-62
2023/03/05 05:35:42;;;;;;;;;;;;;;;4.95;81.58;99275.94;3172747;28;19973;-62
2023/03/05 05:37:13;;;;;;;;;;;;;;;4.96;81.56;99285.34;3172722;28;19932;-63
2023/03/05 05:38:45;;;;;;;;;;;;;;;4.99;81.49;99287.84;3172286;28;20575;-62
2023/03/05 05:40:17;;;;;;;;;;;;;;;4.98;81.53;99289.59;3172316;28;20018;-63
2023/03/05 05:41:50;;;;;;;;;;;;;;;5.00;81.49;99290.38;3172386;28;19938;-63
2023/03/05 05:43:21;;;;;;;;;;;;;;;4.98;81.62;99281.00;3172361;28;19928;-63
2023/03/05 05:44:54;;;;;;;;;;;;;;;4.97;81.48;99294.81;3172087;28;20010;-63
2023/03/05 05:46:26;;;;;;;;;;;;;;;4.97;81.38;99293.06;3172180;28;20010;-62
2023/03/05 05:47:57;;;;;;;;;;;;;;;4.99;81.47;99300.75;3172383;28;19977;-63
2023/03/05 05:49:29;;;;;;;;;;;;;;;5.00;81.59;99292.97;3172032;28;19924;-63
2023/03/05 05:51:04;;;;;;;;;;;;;;;5.03;81.44;99297.19;3172217;28;19923;-63
2023/03/05 05:52:35;;;;;;;;;;;;;;;5.07;81.35;99293.63;3171994;28;20073;-63
2023/03/05 05:54:07;;;;;;;;;;;;;;;5.09;81.31;99294.44;3172376;28;19923;-63
2023/03/05 05:55:41;;;;;;;;;;;;;;;5.12;81.47;99294.34;3171993;28;20347;-63
2023/03/05 05:57:12;;;;;;;;;;;;;;;5.15;81.29;99293.41;3172472;28;19923;-64
2023/03/05 05:58:45;;;;;;;;;;;;;;;5.18;81.20;99301.88;3171964;28;19957;-62
2023/03/05 06:00:17;;;;;;;;;;;;;;;5.18;81.06;99299.31;3172073;28;19924;-62
2023/03/05 06:01:48;;;;;;;;;;;;;;;5.16;81.11;99307.97;3171868;28;19928;-62
2023/03/05 06:03:20;;;;;;;;;;;;;;;5.13;81.10;99308.91;3171244;28;19930;-63
2023/03/05 06:04:50;;;;;;;;;;;;;;;5.13;81.08;99300.34;3172068;28;19935;-62
2023/03/05 06:06:23;;;;;;;;;;;;;;;5.12;80.94;99309.81;3172102;28;20024;-62
2023/03/05 06:07:54;;;;;;;;;;;;;;;5.13;81.25;99313.25;3172060;28;19923;-62
2023/03/05 06:09:26;;;;;;;;;;;;;;;5.11;81.03;99313.28;3171846;28;19947;-62
2023/03/05 06:10:59;;;;;;;;;;;;;;;5.10;81.12;99309.00;3171848;28;19977;-62
2023/03/05 06:12:30;;;;;;;;;;;;;;;5.11;81.14;99313.28;3171931;28;19924;-62
2023/03/05 06:14:02;;;;;;;;;;;;;;;5.12;81.23;99314.97;3171888;28;19947;-62
2023/03/05 06:15:34;;;;;;;;;;;;;;;5.15;81.12;99311.47;3171722;28;19938;-62
2023/03/05 06:17:05;;;;;;;;;;;;;;;5.17;81.12;99304.50;3171988;28;19924;-63
2023/03/05 06:18:37;;;;;;;;;;;;;;;5.21;81.07;99309.53;3172040;28;19923;-63
2023/03/05 06:20:09;;;;;;;;;;;;;;;5.23;80.97;99309.47;3171293;28;19935;-63
2023/03/05 06:21:41;;;;;;;;;;;;;;;5.24;80.98;99311.19;3163893;28;20317;-62
2023/03/05 06:23:12;;;;;;;;;;;;;;;5.22;81.01;99302.63;3167906;28;19946;-63
2023/03/05 06:24:44;;;;;;;;;;;;;;;5.21;81.07;99309.53;3171821;28;19923;-62
2023/03/05 06:26:18;;;;;;;;;;;;;;;5.18;81.23;99307.03;3172008;28;19928;-63
2023/03/05 06:27:49;;;;;;;;;;;;;;;5.16;81.08;99307.97;3171901;28;19924;-63
2023/03/05 06:29:21;;;;;;;;;;;;;;;5.14;81.16;99315.75;3171822;28;19981;-63
2023/03/05 06:30:59;;;;;;;;;;;;;;;5.12;81.33;99312.41;3171883;28;20027;-63
2023/03/05 06:32:30;;;;;;;;;;;;;;;5.13;81.24;99318.41;3171506;28;19930;-63
2023/03/05 06:34:02;;;;;;;;;;;;;;;5.15;81.53;99316.63;3171687;28;19924;-63
2023/03/05 06:35:33;;;;;;;;;;;;;;;5.18;81.29;99319.13;3171903;28;19927;-63
2023/03/05 06:37:05;;;;;;;;;;;;;;;5.23;81.34;99323.25;3171949;28;19939;-63
2023/03/05 06:38:37;;;;;;;;;;;;;;;5.30;81.22;99320.47;3171658;28;20405;-63
2023/03/05 06:40:10;;;;;;;;;;;;;;;5.35;81.13;99321.16;3171976;28;19927;-63
2023/03/05 06:41:43;;;;;;;;;;;;;;;5.39;81.30;99321.00;3171882;28;19924;-63
2023/03/05 06:43:15;;;;;;;;;;;;;;;5.43;81.04;99316.59;3171562;28;19924;-63
2023/03/05 06:44:46;;;;;;;;;;;;;;;5.46;81.00;99319.91;3171519;28;20264;-63
2023/03/05 06:46:19;;;;;;;;;;;;;;;5.51;81.14;99324.09;3171726;28;20000;-63
2023/03/05 06:47:49;;;;;;;;;;;;;;;5.56;80.93;99317.03;3171751;28;20298;-63
2023/03/05 06:49:21;;;;;;;;;;;;;;;5.65;81.02;99317.59;3171495;28;19930;-63
2023/03/05 06:50:52;;;;;;;;;;;;;;;5.90;81.48;99311.59;3171735;28;20352;-63
2023/03/05 06:52:24;;;;;;;;;;;;;;;6.24;82.04;99315.63;3171532;28;20393;-63
2023/03/05 06:53:56;;;;;;;;;;;;;;;6.75;82.38;99314.66;3171630;28;20388;-63
2023/03/05 06:55:28;;;;;;;;;;;;;;;7.35;82.41;99304.59;3171607;28;19924;-63
2023/03/05 06:57:01;;;;;;;;;;;;;;;7.91;81.72;99306.59;3171611;28;19923;-63
2023/03/05 06:58:31;;;;;;;;;;;;;;;8.40;80.79;99310.56;3170644;28;19923;-63
2023/03/05 07:00:06;;;;;;;;;;;;;;;8.96;80.27;99308.03;3171539;28;19949;-62
2023/03/05 07:01:38;;;;;;;;;;;;;;;9.51;79.36;99302.84;3171224;28;19935;-62
2023/03/05 07:03:10;;;;;;;;;;;;;;;9.98;78.25;99305.69;3170944;28;19927;-63
2023/03/05 07:04:41;;;;;;;;;;;;;;;10.18;76.54;99296.03;3171229;28;19924;-62
2023/03/05 07:06:14;;;;;;;;;;;;;;;10.53;76.42;99301.16;3171304;28;19946;-63
2023/03/05 07:07:46;;;;;;;;;;;;;;;10.83;74.63;99299.53;3171238;27;20010;-63
2023/03/05 07:09:17;;;;;;;;;;;;;;;11.16;73.56;99296.00;3171380;28;19998;-63
2023/03/05 07:10:49;;;;;;;;;;;;;;;11.45;72.56;99294.38;3158962;28;20024;-63
2023/03/05 07:12:22;;;;;;;;;;;;;;;11.71;72.17;99300.72;3158688;28;19925;-63
2023/03/05 07:13:54;;;;;;;;;;;;;;;11.94;71.39;99303.75;3164461;28;19935;-63
2023/03/05 07:15:25;;;;;;;;;;;;;;;12.10;70.78;99306.31;3171020;28;19928;-63
2023/03/05 07:16:56;;;;;;;;;;;;;;;12.26;70.36;99309.69;3171355;28;19924;-63
2023/03/05 07:18:28;;;;;;;;;;;;;;;12.60;69.79;99316.34;3171329;28;19930;-64
2023/03/05 07:19:59;;;;;;;;;;;;;;;13.00;69.32;99315.63;3171112;28;19928;-63
2023/03/05 07:21:32;;;;;;;;;;;;;;;13.45;67.36;99311.03;3171429;28;19924;-63
2023/03/05 07:23:04;;;;;;;;;;;;;;;13.95;66.25;99299.84;3170907;28;20389;-62
2023/03/05 07:24:36;;;;;;;;;;;;;;;14.06;62.43;99299.16;3170883;28;20314;-63
2023/03/05 07:26:06;;;;;;;;;;;;;;;14.10;61.77;99298.00;3171272;28;19943;-63
2023/03/05 07:27:39;;;;;;;;;;;;;;;14.31;61.89;99300.91;3171424;28;19931;-62
2023/03/05 07:29:11;;;;;;;;;;;;;;;14.69;61.40;99298.28;3171042;28;19923;-63
2023/03/05 07:30:42;;;;;;;;;;;;;;;15.12;60.79;99297.06;3170947;28;19923;-63
2023/03/05 07:32:14;;;;;;;;;;;;;;;15.53;60.05;99295.81;3170852;28;19928;-62
2023/03/05 07:33:46;;;;;;;;;;;;;;;15.88;58.72;99287.97;3171243;28;19931;-63
2023/03/05 07:35:17;;;;;;;;;;;;;;;15.98;57.11;99290.75;3170802;28;19923;-63
2023/03/05 07:36:50;;;;;;;;;;;;;;;16.18;55.98;99295.34;3170978;28;19923;-63
2023/03/05 07:38:20;;;;;;;;;;;;;;;15.99;55.06;99290.63;3171042;28;19924;-63
2023/03/05 07:39:52;;;;;;;;;;;;;;;16.18;55.79;99291.84;3170745;28;20081;-63
2023/03/05 07:41:23;;;;;;;;;;;;;;;16.43;55.74;99291.63;3171079;28;19928;-63
2023/03/05 07:42:56;;;;;;;;;;;;;;;16.73;55.17;99291.03;3170898;28;20371;-63
2023/03/05 07:44:28;;;;;;;;;;;;;;;16.95;54.38;99290.22;3171041;28;19934;-62
2023/03/05 07:46:00;;;;;;;;;;;;;;;17.17;53.52;99293.75;3171114;28;19935;-63
2023/03/05 07:47:31;;;;;;;;;;;;;;;17.23;52.52;99286.19;3171156;28;20393;-63
2023/03/05 07:49:03;;;;;;;;;;;;;;;17.26;51.97;99279.84;3170842;28;19927;-63
2023/03/05 07:50:35;;;;;;;;;;;;;;;17.40;52.50;99278.72;3171127;28;19977;-63
2023/03/05 07:52:06;;;;;;;;;;;;;;;17.65;51.54;99281.00;3170993;28;19923;-63
2023/03/05 07:53:38;;;;;;;;;;;;;;;17.80;51.75;99281.56;3170799;28;19934;-63
2023/03/05 07:55:10;;;;;;;;;;;;;;;18.10;52.01;99283.44;3170348;28;19984;-63
2023/03/05 07:56:42;;;;;;;;;;;;;;;18.39;51.47;99273.00;3170913;28;19984;-63
2023/03/05 07:58:15;;;;;;;;;;;;;;;18.69;51.04;99271.31;3170687;28;19927;-63
2023/03/05 07:59:46;;;;;;;;;;;;;;;18.93;49.60;99273.69;3170742;28;20011;-63
2023/03/05 08:01:18;;;;;;;;;;;;;;;19.10;49.45;99274.78;3170741;28;19976;-63
2023/03/05 08:02:50;;;;;;;;;;;;;;;19.03;46.99;99271.03;3170547;28;20018;-63